createdAt,value
2022-09-14T00:00:45.685Z,17.46
2022-09-14T00:03:12.368Z,17.46
2022-09-14T00:05:38.833Z,17.46
2022-09-14T00:08:05.251Z,17.46
2022-09-14T00:10:31.781Z,17.45
2022-09-14T00:13:00.168Z,17.43
2022-09-14T00:15:27.010Z,17.43
2022-09-14T00:17:53.442Z,17.46
2022-09-14T00:20:19.854Z,17.48
2022-09-14T00:22:46.360Z,17.45
2022-09-14T00:25:12.759Z,17.47
2022-09-14T00:27:39.165Z,17.47
2022-09-14T00:30:06.344Z,17.49
2022-09-14T00:32:32.933Z,17.50
2022-09-14T00:34:59.353Z,17.48
2022-09-14T00:37:25.870Z,17.44
2022-09-14T00:39:52.583Z,17.30
2022-09-14T00:42:19.521Z,17.25
2022-09-14T00:44:46.003Z,17.27
2022-09-14T00:47:12.762Z,17.21
2022-09-14T00:49:41.453Z,17.19
2022-09-14T00:52:13.198Z,17.21
2022-09-14T00:54:42.955Z,17.21
2022-09-14T00:57:09.989Z,17.21
2022-09-14T00:59:39.077Z,17.22
2022-09-14T01:02:09.204Z,17.21
2022-09-14T01:04:36.619Z,17.25
2022-09-14T01:07:27.764Z,17.24
2022-09-14T01:10:31.081Z,17.24
2022-09-14T01:13:11.606Z,17.21
2022-09-14T01:15:58.598Z,17.22
2022-09-14T01:18:29.777Z,17.23
2022-09-14T01:21:32.577Z,17.26
2022-09-14T01:24:29.585Z,17.18
2022-09-14T01:26:58.687Z,17.21
2022-09-14T01:29:30.935Z,17.31
2022-09-14T01:32:15.651Z,17.33
2022-09-14T01:34:55.972Z,17.34
2022-09-14T01:38:07.253Z,17.37
2022-09-14T01:40:38.693Z,17.36
2022-09-14T01:43:15.033Z,17.41
2022-09-14T01:45:47.862Z,17.42
2022-09-14T01:48:18.076Z,17.39
2022-09-14T01:50:52.173Z,17.39
2022-09-14T01:53:35.026Z,17.39
2022-09-14T01:56:15.562Z,17.37
2022-09-14T01:58:47.143Z,17.39
2022-09-14T02:01:21.720Z,17.37
2022-09-14T02:03:55.482Z,17.37
2022-09-14T02:06:32.087Z,17.34
2022-09-14T02:09:00.908Z,17.36
2022-09-14T02:11:27.515Z,17.38
2022-09-14T02:13:54.176Z,17.43
2022-09-14T02:16:23.426Z,17.37
2022-09-14T02:18:50.195Z,17.41
2022-09-14T02:21:26.433Z,17.41
2022-09-14T02:23:54.045Z,17.38
2022-09-14T02:26:22.871Z,17.38
2022-09-14T02:28:49.873Z,17.37
2022-09-14T02:31:26.778Z,17.39
2022-09-14T02:34:23.567Z,17.37
2022-09-14T02:37:19.906Z,17.39
2022-09-14T02:40:04.595Z,17.37
2022-09-14T02:42:50.466Z,17.33
2022-09-14T02:45:55.777Z,17.31
2022-09-14T02:48:51.431Z,17.32
2022-09-14T02:51:26.866Z,17.36
2022-09-14T02:54:06.870Z,17.34
2022-09-14T02:56:35.517Z,17.26
2022-09-14T02:59:02.100Z,17.23
2022-09-14T03:01:28.677Z,17.24
2022-09-14T03:03:55.394Z,17.24
2022-09-14T03:06:22.483Z,17.23
2022-09-14T03:08:49.681Z,17.25
2022-09-14T03:11:16.293Z,17.26
2022-09-14T03:13:42.831Z,17.21
2022-09-14T03:16:14.313Z,17.21
2022-09-14T03:18:41.482Z,17.19
2022-09-14T03:21:11.438Z,17.21
2022-09-14T03:23:39.884Z,17.17
2022-09-14T03:26:08.225Z,17.16
2022-09-14T03:28:34.870Z,17.16
2022-09-14T03:31:02.596Z,17.18
2022-09-14T03:33:29.085Z,17.19
2022-09-14T03:35:55.495Z,17.18
2022-09-14T03:38:22.060Z,17.18
2022-09-14T03:40:48.413Z,17.15
2022-09-14T03:43:14.917Z,17.16
2022-09-14T03:45:41.512Z,17.17
2022-09-14T03:48:07.995Z,17.19
2022-09-14T03:50:34.599Z,17.18
2022-09-14T03:53:00.978Z,17.20
2022-09-14T03:55:27.435Z,17.19
2022-09-14T03:57:55.079Z,17.20
2022-09-14T04:00:22.679Z,17.21
2022-09-14T04:02:49.351Z,17.22
2022-09-14T04:05:18.727Z,17.21
2022-09-14T04:07:48.072Z,17.24
2022-09-14T04:10:14.508Z,17.28
2022-09-14T04:12:41.653Z,17.27
2022-09-14T04:15:09.135Z,17.29
2022-09-14T04:17:37.963Z,17.30
2022-09-14T04:20:04.650Z,17.34
2022-09-14T04:22:31.103Z,17.35
2022-09-14T04:24:57.602Z,17.34
2022-09-14T04:27:24.065Z,17.31
2022-09-14T04:29:51.045Z,17.31
2022-09-14T04:32:17.718Z,17.32
2022-09-14T04:34:44.098Z,17.34
2022-09-14T04:37:10.552Z,17.38
2022-09-14T04:39:36.937Z,17.35
2022-09-14T04:42:03.355Z,17.31
2022-09-14T04:44:30.171Z,17.37
2022-09-14T04:46:56.574Z,17.38
2022-09-14T04:49:23.215Z,17.38
2022-09-14T04:51:50.075Z,17.37
2022-09-14T04:54:17.961Z,17.39
2022-09-14T04:56:45.021Z,17.38
2022-09-14T04:59:12.765Z,17.36
2022-09-14T05:01:41.660Z,17.31
2022-09-14T05:04:09.182Z,17.32
2022-09-14T05:06:38.261Z,17.40
2022-09-14T05:09:07.049Z,17.33
2022-09-14T05:11:35.994Z,17.27
2022-09-14T05:14:03.279Z,17.28
2022-09-14T05:16:32.471Z,17.32
2022-09-14T05:19:01.979Z,17.30
2022-09-14T05:21:30.215Z,17.34
2022-09-14T05:23:58.917Z,17.34
2022-09-14T05:26:27.408Z,17.37
2022-09-14T05:28:57.392Z,17.31
2022-09-14T05:31:25.326Z,17.23
2022-09-14T05:33:52.646Z,17.23
2022-09-14T05:36:19.378Z,17.17
2022-09-14T05:38:46.125Z,17.14
2022-09-14T05:41:14.947Z,17.12
2022-09-14T05:43:41.989Z,17.15
2022-09-14T05:46:13.913Z,17.18
2022-09-14T05:48:41.093Z,17.23
2022-09-14T05:51:12.245Z,17.17
2022-09-14T05:53:38.613Z,17.16
2022-09-14T05:56:07.768Z,17.18
2022-09-14T05:58:36.777Z,17.19
2022-09-14T06:01:21.942Z,17.19
2022-09-14T06:03:49.506Z,17.25
2022-09-14T06:06:19.094Z,17.24
2022-09-14T06:08:46.546Z,17.22
2022-09-14T06:11:16.177Z,17.22
2022-09-14T06:13:43.385Z,17.24
2022-09-14T06:16:13.046Z,17.30
2022-09-14T06:18:41.161Z,17.31
2022-09-14T06:21:08.970Z,17.32
2022-09-14T06:23:36.327Z,17.34
2022-09-14T06:26:05.120Z,17.37
2022-09-14T06:28:32.396Z,17.37
2022-09-14T06:30:59.561Z,17.40
2022-09-14T06:33:26.291Z,17.43
2022-09-14T06:36:00.995Z,17.46
2022-09-14T06:38:28.666Z,17.48
2022-09-14T06:40:57.031Z,17.49
2022-09-14T06:43:28.164Z,17.56
2022-09-14T06:46:00.597Z,17.55
2022-09-14T06:48:29.763Z,17.50
2022-09-14T06:50:56.480Z,17.49
2022-09-14T06:53:23.301Z,17.55
2022-09-14T06:55:49.915Z,17.54
2022-09-14T06:58:16.369Z,17.56
2022-09-14T07:00:42.925Z,17.60
2022-09-14T07:03:09.417Z,17.56
2022-09-14T07:05:35.883Z,17.60
2022-09-14T07:08:02.509Z,17.61
2022-09-14T07:10:29.171Z,17.62
2022-09-14T07:12:55.664Z,17.62
2022-09-14T07:15:22.461Z,17.69
2022-09-14T07:17:48.979Z,17.68
2022-09-14T07:20:15.739Z,17.72
2022-09-14T07:22:42.717Z,17.74
2022-09-14T07:25:10.347Z,17.77
2022-09-14T07:27:39.372Z,17.78
2022-09-14T07:30:07.473Z,17.79
2022-09-14T07:32:34.131Z,17.76
2022-09-14T07:35:00.937Z,17.77
2022-09-14T07:37:28.757Z,17.83
2022-09-14T07:39:57.150Z,17.86
2022-09-14T07:42:23.726Z,17.83
2022-09-14T07:44:50.532Z,17.80
2022-09-14T07:47:17.089Z,17.87
2022-09-14T07:49:43.503Z,17.94
2022-09-14T07:52:11.200Z,18.02
2022-09-14T07:54:37.844Z,17.96
2022-09-14T07:57:04.323Z,17.96
2022-09-14T07:59:38.467Z,18.09
2022-09-14T08:02:07.412Z,18.05
2022-09-14T08:04:39.261Z,18.06
2022-09-14T08:07:05.925Z,18.09
2022-09-14T08:09:32.334Z,18.03
2022-09-14T08:11:58.725Z,18.05
2022-09-14T08:14:25.359Z,18.09
2022-09-14T08:16:52.320Z,18.02
2022-09-14T08:19:20.693Z,18.06
2022-09-14T08:21:48.041Z,18.12
2022-09-14T08:24:18.726Z,18.17
2022-09-14T08:26:46.231Z,18.19
2022-09-14T08:29:14.170Z,18.25
2022-09-14T08:31:42.513Z,18.31
2022-09-14T08:34:09.202Z,18.28
2022-09-14T08:36:38.133Z,18.35
2022-09-14T08:39:08.987Z,18.44
2022-09-14T08:41:45.073Z,18.40
2022-09-14T08:44:11.618Z,18.42
2022-09-14T08:46:44.343Z,18.45
2022-09-14T08:49:30.117Z,18.52
2022-09-14T08:51:57.097Z,18.52
2022-09-14T08:54:23.752Z,18.61
2022-09-14T08:57:04.226Z,18.60
2022-09-14T08:59:33.906Z,18.55
2022-09-14T09:02:20.475Z,18.57
2022-09-14T09:04:58.587Z,18.55
2022-09-14T09:07:48.806Z,18.57
2022-09-14T09:10:15.598Z,18.62
2022-09-14T09:12:54.112Z,18.60
2022-09-14T09:15:36.929Z,18.63
2022-09-14T09:18:26.883Z,18.66
2022-09-14T09:20:59.767Z,18.61
2022-09-14T09:23:28.919Z,18.57
2022-09-14T09:26:04.736Z,18.61
2022-09-14T09:28:32.057Z,18.64
2022-09-14T09:31:05.140Z,18.73
2022-09-14T09:33:32.381Z,18.81
2022-09-14T09:36:00.022Z,18.83
2022-09-14T09:38:28.778Z,18.89
2022-09-14T09:41:01.777Z,18.83
2022-09-14T09:43:48.373Z,18.90
2022-09-14T09:46:14.782Z,18.95
2022-09-14T09:48:44.815Z,18.90
2022-09-14T09:51:31.771Z,18.90
2022-09-14T09:54:09.425Z,18.97
2022-09-14T09:56:40.111Z,18.97
2022-09-14T09:59:31.984Z,18.98
2022-09-14T10:02:20.158Z,19.06
2022-09-14T10:05:34.169Z,19.02
2022-09-14T10:08:11.246Z,18.96
2022-09-14T10:10:39.090Z,18.92
2022-09-14T10:13:15.911Z,18.95
2022-09-14T10:15:43.485Z,19.05
2022-09-14T10:18:13.316Z,19.12
2022-09-14T10:20:43.996Z,19.20
2022-09-14T10:23:16.390Z,19.33
2022-09-14T10:25:43.054Z,19.47
2022-09-14T10:28:23.313Z,19.43
2022-09-14T10:30:57.342Z,19.39
2022-09-14T10:33:23.944Z,19.49
2022-09-14T10:36:17.004Z,19.80
2022-09-14T10:38:58.290Z,19.88
2022-09-14T10:41:46.751Z,19.81
2022-09-14T10:44:28.264Z,19.70
2022-09-14T10:47:10.025Z,19.55
2022-09-14T10:49:55.236Z,19.53
2022-09-14T10:52:36.938Z,19.47
2022-09-14T10:55:32.056Z,19.39
2022-09-14T10:58:28.927Z,19.34
2022-09-14T11:01:13.507Z,19.36
2022-09-14T11:03:46.222Z,19.33
2022-09-14T11:06:18.687Z,19.30
2022-09-14T11:08:49.352Z,19.32
2022-09-14T11:11:37.681Z,19.31
2022-09-14T11:14:17.068Z,19.15
2022-09-14T11:17:20.958Z,19.06
2022-09-14T11:19:58.909Z,19.02
2022-09-14T11:22:37.589Z,18.95
2022-09-14T11:25:18.369Z,18.88
2022-09-14T11:27:58.498Z,18.80
2022-09-14T11:30:47.405Z,18.79
2022-09-14T11:33:25.971Z,18.65
2022-09-14T11:36:01.548Z,18.61
2022-09-14T11:38:50.405Z,18.62
2022-09-14T11:41:19.769Z,18.65
2022-09-14T11:44:03.661Z,18.68
2022-09-14T11:46:42.057Z,18.69
2022-09-14T11:49:24.315Z,18.71
2022-09-14T11:52:02.631Z,18.81
2022-09-14T11:54:29.192Z,18.83
2022-09-14T11:57:01.065Z,18.86
2022-09-14T11:59:39.789Z,18.92
2022-09-14T12:02:25.268Z,18.98
2022-09-14T12:05:06.956Z,19.10
2022-09-14T12:07:39.459Z,19.12
2022-09-14T12:10:15.400Z,19.13
2022-09-14T12:12:44.613Z,19.19
2022-09-14T12:15:16.552Z,19.07
2022-09-14T12:17:44.432Z,19.01
2022-09-14T12:20:29.953Z,19.15
2022-09-14T12:23:24.639Z,19.21
2022-09-14T12:25:57.211Z,19.17
2022-09-14T12:28:38.882Z,19.18
2022-09-14T12:31:05.494Z,19.20
2022-09-14T12:33:32.158Z,19.18
2022-09-14T12:35:58.707Z,19.15
2022-09-14T12:38:31.415Z,19.25
2022-09-14T12:41:01.905Z,19.27
2022-09-14T12:43:34.809Z,19.37
2022-09-14T12:46:03.248Z,19.39
2022-09-14T12:48:53.056Z,19.48
2022-09-14T12:51:29.174Z,19.29
2022-09-14T12:53:58.728Z,19.19
2022-09-14T12:56:40.081Z,19.09
2022-09-14T12:59:18.017Z,19.08
2022-09-14T13:02:06.450Z,19.07
2022-09-14T13:04:36.155Z,19.10
2022-09-14T13:07:07.262Z,19.04
2022-09-14T13:09:34.267Z,19.00
2022-09-14T13:12:04.737Z,18.93
2022-09-14T13:14:36.125Z,18.94
2022-09-14T13:17:04.897Z,18.98
2022-09-14T13:19:33.717Z,19.04
2022-09-14T13:22:02.626Z,19.04
2022-09-14T13:24:42.840Z,19.00
2022-09-14T13:27:20.790Z,19.02
2022-09-14T13:29:48.364Z,19.05
2022-09-14T13:32:20.803Z,19.04
2022-09-14T13:34:47.610Z,19.04
2022-09-14T13:37:14.958Z,19.01
2022-09-14T13:39:50.825Z,19.03
2022-09-14T13:42:18.078Z,19.03
2022-09-14T13:44:46.619Z,18.98
2022-09-14T13:47:15.464Z,18.92
2022-09-14T13:49:43.819Z,18.89
2022-09-14T13:52:43.085Z,18.90
2022-09-14T13:55:32.664Z,18.89
2022-09-14T13:58:21.189Z,18.84
2022-09-14T14:00:51.934Z,18.85
2022-09-14T14:03:35.267Z,18.81
2022-09-14T14:06:17.681Z,18.76
2022-09-14T14:08:44.199Z,18.77
2022-09-14T14:11:10.980Z,18.75
2022-09-14T14:13:38.155Z,18.79
2022-09-14T14:16:26.421Z,18.81
2022-09-14T14:18:58.516Z,18.84
2022-09-14T14:21:31.233Z,18.82
2022-09-14T14:24:27.653Z,18.82
2022-09-14T14:26:57.313Z,18.80
2022-09-14T14:29:25.649Z,18.80
2022-09-14T14:31:54.906Z,18.80
2022-09-14T14:34:22.453Z,18.79
2022-09-14T14:36:50.173Z,18.73
2022-09-14T14:39:19.106Z,18.69
2022-09-14T14:41:46.943Z,18.72
2022-09-14T14:44:19.286Z,18.71
2022-09-14T14:46:46.091Z,18.74
2022-09-14T14:49:15.042Z,18.76
2022-09-14T14:51:41.943Z,18.70
2022-09-14T14:54:11.199Z,18.71
2022-09-14T14:56:39.223Z,18.64
2022-09-14T14:59:20.687Z,18.65
2022-09-14T15:01:48.568Z,18.58
2022-09-14T15:04:15.313Z,18.61
2022-09-14T15:06:42.154Z,18.60
2022-09-14T15:09:20.271Z,18.55
2022-09-14T15:11:47.213Z,18.47
2022-09-14T15:14:15.459Z,18.43
2022-09-14T15:16:42.622Z,18.39
2022-09-14T15:19:10.595Z,18.36
2022-09-14T15:21:38.625Z,18.30
2022-09-14T15:24:05.861Z,18.22
2022-09-14T15:26:33.311Z,18.22
2022-09-14T15:29:00.509Z,18.12
2022-09-14T15:31:27.348Z,18.02
2022-09-14T15:33:53.888Z,18.05
2022-09-14T15:36:50.805Z,17.92
2022-09-14T15:39:20.624Z,17.89
2022-09-14T15:41:47.186Z,17.96
2022-09-14T15:44:15.394Z,17.88
2022-09-14T15:46:44.426Z,17.83
2022-09-14T15:49:14.135Z,17.83
2022-09-14T15:51:45.272Z,17.79
2022-09-14T15:54:12.600Z,17.80
2022-09-14T15:56:39.101Z,17.84
2022-09-14T15:59:05.707Z,17.80
2022-09-14T16:01:32.760Z,17.86
2022-09-14T16:04:08.279Z,17.84
2022-09-14T16:06:37.389Z,17.81
2022-09-14T16:09:05.787Z,17.80
2022-09-14T16:11:34.677Z,17.85
2022-09-14T16:14:02.440Z,17.83
2022-09-14T16:16:28.926Z,17.82
2022-09-14T16:18:55.712Z,17.78
2022-09-14T16:21:24.827Z,17.77
2022-09-14T16:23:53.983Z,17.76
2022-09-14T16:26:24.056Z,17.78
2022-09-14T16:28:52.662Z,17.80
2022-09-14T16:31:22.027Z,17.79
2022-09-14T16:33:54.864Z,17.80
2022-09-14T16:36:31.983Z,17.86
2022-09-14T16:39:06.435Z,17.83
2022-09-14T16:41:33.015Z,17.80
2022-09-14T16:44:01.760Z,17.76
2022-09-14T16:46:29.965Z,17.76
2022-09-14T16:48:58.593Z,17.86
2022-09-14T16:51:26.895Z,17.73
2022-09-14T16:53:53.691Z,17.73
2022-09-14T16:56:25.632Z,17.70
2022-09-14T16:58:54.084Z,17.71
2022-09-14T17:01:42.494Z,17.64
2022-09-14T17:04:14.775Z,17.60
2022-09-14T17:06:43.475Z,17.69
2022-09-14T17:09:15.582Z,17.61
2022-09-14T17:11:43.038Z,17.65
2022-09-14T17:14:14.616Z,17.55
2022-09-14T17:16:41.182Z,17.47
2022-09-14T17:19:08.015Z,17.46
2022-09-14T17:21:37.520Z,17.42
2022-09-14T17:24:05.524Z,17.39
2022-09-14T17:26:32.636Z,17.37
2022-09-14T17:29:00.566Z,17.27
2022-09-14T17:31:29.959Z,17.21
2022-09-14T17:33:58.172Z,17.27
2022-09-14T17:36:25.301Z,17.20
2022-09-14T17:38:52.516Z,17.14
2022-09-14T17:41:22.102Z,17.05
2022-09-14T17:43:53.493Z,17.09
2022-09-14T17:46:22.053Z,17.12
2022-09-14T17:48:49.749Z,17.06
2022-09-14T17:51:20.415Z,17.05
2022-09-14T17:53:49.472Z,17.04
2022-09-14T17:56:17.949Z,17.00
2022-09-14T17:58:44.386Z,17.02
2022-09-14T18:01:19.951Z,17.04
2022-09-14T18:03:51.792Z,17.02
2022-09-14T18:06:18.687Z,17.02
2022-09-14T18:08:45.764Z,17.06
2022-09-14T18:11:15.311Z,16.97
2022-09-14T18:13:48.030Z,17.00
2022-09-14T18:16:16.720Z,16.95
2022-09-14T18:18:43.598Z,16.91
2022-09-14T18:21:11.349Z,16.90
2022-09-14T18:23:38.122Z,16.88
2022-09-14T18:26:06.690Z,16.86
2022-09-14T18:28:34.122Z,16.73
2022-09-14T18:31:02.043Z,16.74
2022-09-14T18:33:29.308Z,16.78
2022-09-14T18:35:55.991Z,16.76
2022-09-14T18:38:22.493Z,16.74
2022-09-14T18:40:49.741Z,16.71
2022-09-14T18:43:16.868Z,16.65
2022-09-14T18:45:44.417Z,16.67
2022-09-14T18:48:11.019Z,16.69
2022-09-14T18:50:38.677Z,16.66
2022-09-14T18:53:05.137Z,16.67
2022-09-14T18:55:33.531Z,16.66
2022-09-14T18:58:00.331Z,16.61
2022-09-14T19:00:26.805Z,16.64
2022-09-14T19:02:55.118Z,16.63
2022-09-14T19:05:23.351Z,16.60
2022-09-14T19:07:49.981Z,16.64
2022-09-14T19:10:16.907Z,16.64
2022-09-14T19:12:43.437Z,16.68
2022-09-14T19:15:11.265Z,16.71
2022-09-14T19:17:38.642Z,16.71
2022-09-14T19:20:06.894Z,16.68
2022-09-14T19:22:33.977Z,16.72
2022-09-14T19:25:00.393Z,16.67
2022-09-14T19:27:27.175Z,16.60
2022-09-14T19:29:53.711Z,16.59
2022-09-14T19:32:20.274Z,16.57
2022-09-14T19:34:46.735Z,16.53
2022-09-14T19:37:13.103Z,16.53
2022-09-14T19:39:39.613Z,16.50
2022-09-14T19:42:06.013Z,16.56
2022-09-14T19:44:32.484Z,16.54
2022-09-14T19:46:59.027Z,16.52
2022-09-14T19:49:26.131Z,16.52
2022-09-14T19:51:53.544Z,16.52
2022-09-14T19:54:20.191Z,16.53
2022-09-14T19:56:47.062Z,16.53
2022-09-14T19:59:13.983Z,16.56
2022-09-14T20:01:41.184Z,16.53
2022-09-14T20:04:09.247Z,16.51
2022-09-14T20:06:46.353Z,16.53
2022-09-14T20:09:14.661Z,16.54
2022-09-14T20:11:43.504Z,16.55
2022-09-14T20:14:15.710Z,16.43
2022-09-14T20:16:53.765Z,16.39
2022-09-14T20:19:23.304Z,16.37
2022-09-14T20:21:51.087Z,16.40
2022-09-14T20:24:25.599Z,16.41
2022-09-14T20:26:59.451Z,16.44
2022-09-14T20:29:30.018Z,16.31
2022-09-14T20:31:57.440Z,16.30
2022-09-14T20:34:24.465Z,16.27
2022-09-14T20:36:52.668Z,16.28
2022-09-14T20:39:20.662Z,16.29
2022-09-14T20:41:47.051Z,16.23
2022-09-14T20:44:14.061Z,16.17
2022-09-14T20:46:43.709Z,16.17
2022-09-14T20:49:16.161Z,16.18
2022-09-14T20:51:42.902Z,16.12
2022-09-14T20:54:14.869Z,16.15
2022-09-14T20:56:42.350Z,16.09
2022-09-14T20:59:12.470Z,16.07
2022-09-14T21:01:41.287Z,15.98
2022-09-14T21:04:10.560Z,15.96
2022-09-14T21:06:39.498Z,15.93
2022-09-14T21:09:07.562Z,15.82
2022-09-14T21:11:34.336Z,15.88
2022-09-14T21:14:00.828Z,15.84
2022-09-14T21:16:29.856Z,15.81
2022-09-14T21:18:58.918Z,15.80
2022-09-14T21:21:26.334Z,15.81
2022-09-14T21:23:55.860Z,15.74
2022-09-14T21:26:23.162Z,15.73
2022-09-14T21:28:55.377Z,15.66
2022-09-14T21:31:21.859Z,15.65
2022-09-14T21:33:51.477Z,15.63
2022-09-14T21:36:23.909Z,15.69
2022-09-14T21:38:52.019Z,15.63
2022-09-14T21:41:19.720Z,15.56
2022-09-14T21:43:47.068Z,15.58
2022-09-14T21:46:14.423Z,15.57
2022-09-14T21:48:41.109Z,15.55
2022-09-14T21:51:14.721Z,15.60
2022-09-14T21:53:45.506Z,15.57
2022-09-14T21:56:12.096Z,15.55
2022-09-14T21:58:38.873Z,15.56
2022-09-14T22:01:05.675Z,15.57
2022-09-14T22:03:32.167Z,15.51
2022-09-14T22:06:01.520Z,15.50
2022-09-14T22:08:31.152Z,15.52
2022-09-14T22:11:12.073Z,15.49
2022-09-14T22:13:39.207Z,15.40
2022-09-14T22:16:11.308Z,15.44
2022-09-14T22:18:40.610Z,15.47
2022-09-14T22:21:07.743Z,15.48
2022-09-14T22:23:35.341Z,15.36
2022-09-14T22:26:07.308Z,15.37
2022-09-14T22:28:33.696Z,15.42
2022-09-14T22:31:00.425Z,15.36
2022-09-14T22:33:27.298Z,15.36
2022-09-14T22:35:56.632Z,15.27
2022-09-14T22:38:25.155Z,15.29
2022-09-14T22:40:59.160Z,15.17
2022-09-14T22:43:27.024Z,15.15
2022-09-14T22:45:54.012Z,15.15
2022-09-14T22:48:21.682Z,15.15
2022-09-14T22:50:55.981Z,15.16
2022-09-14T22:53:23.999Z,15.14
2022-09-14T22:55:50.977Z,15.16
2022-09-14T22:58:19.845Z,15.15
2022-09-14T23:00:46.768Z,15.14
2022-09-14T23:03:14.521Z,15.17
2022-09-14T23:05:48.986Z,15.09
2022-09-14T23:08:15.919Z,14.96
2022-09-14T23:10:42.352Z,14.92
2022-09-14T23:13:08.882Z,14.84
2022-09-14T23:15:39.329Z,14.82
2022-09-14T23:18:06.222Z,14.88
2022-09-14T23:20:37.119Z,14.91
2022-09-14T23:23:04.032Z,14.74
2022-09-14T23:25:35.334Z,14.75
2022-09-14T23:28:03.576Z,14.73
2022-09-14T23:30:30.403Z,14.62
2022-09-14T23:32:58.222Z,14.65
2022-09-14T23:35:26.146Z,14.65
2022-09-14T23:37:52.983Z,14.59
2022-09-14T23:40:19.912Z,14.72
2022-09-14T23:42:47.381Z,14.64
2022-09-14T23:45:14.854Z,14.52
2022-09-14T23:47:41.757Z,14.55
2022-09-14T23:50:09.047Z,14.58
2022-09-14T23:52:36.209Z,14.70
2022-09-14T23:55:02.668Z,14.61
2022-09-14T23:57:31.297Z,14.54
2022-09-14T23:59:58.483Z,14.64
